Time;durP1;ratioP1;P1;durP2;ratioP2;P2;SDS_P1;SDS_P2;PMS_P1;PMS_P2;Temp;Humidity;BMP_temperature;BMP_pressure;BME280_temperature;BME280_humidity;BME280_pressure;Samples;Min_cycle;Max_cycle;Signal;HPM_P1;HPM_P2
2022/07/28 00:00:07;;;;;;;4.45;1.30;;;;;;;20.60;55.69;101270.44;4841106;29;20030;-55
2022/07/28 00:02:33;;;;;;;5.00;0.80;;;;;;;20.40;56.39;101271.09;4840468;29;20026;-55
2022/07/28 00:04:59;;;;;;;1.33;0.90;;;;;;;20.67;55.50;101277.31;4840614;29;20030;-55
2022/07/28 00:07:25;;;;;;;1.05;0.68;;;;;;;20.42;56.42;101271.66;4840775;29;20034;-55
2022/07/28 00:09:52;;;;;;;5.68;0.95;;;;;;;19.96;56.94;101266.66;4833853;29;20521;-54
2022/07/28 00:12:18;;;;;;;2.72;0.95;;;;;;;19.82;57.96;101272.75;4829085;29;20225;-54
2022/07/28 00:14:44;;;;;;;3.92;1.10;;;;;;;19.77;57.62;101263.50;4838438;29;20129;-54
2022/07/28 00:17:11;;;;;;;2.30;0.90;;;;;;;19.85;58.18;101264.13;4837250;29;20429;-54
2022/07/28 00:19:37;;;;;;;1.88;1.20;;;;;;;19.76;58.35;101269.19;4842234;29;20368;-54
2022/07/28 00:22:05;;;;;;;1.60;0.90;;;;;;;19.83;57.71;101266.28;4843988;29;20034;-54
2022/07/28 00:24:31;;;;;;;3.55;1.20;;;;;;;19.30;58.50;101267.84;4843754;29;20498;-53
2022/07/28 00:26:57;;;;;;;2.90;1.00;;;;;;;19.13;59.84;101259.78;4844035;29;20269;-54
2022/07/28 00:29:23;;;;;;;3.78;0.95;;;;;;;19.35;59.38;101257.88;4836665;29;21954;-55
2022/07/28 00:31:50;;;;;;;3.78;1.27;;;;;;;19.37;58.82;101258.41;4842498;29;20037;-55
2022/07/28 00:34:16;;;;;;;2.65;0.93;;;;;;;19.30;59.30;101251.56;4837372;29;20559;-55
2022/07/28 00:36:42;;;;;;;2.03;1.00;;;;;;;19.21;59.39;101260.16;4842388;29;20026;-55
2022/07/28 00:39:08;;;;;;;4.85;1.20;;;;;;;19.26;60.09;101249.34;4830725;29;20031;-54
2022/07/28 00:41:35;;;;;;;2.03;0.95;;;;;;;19.35;59.51;101257.06;4843605;29;20058;-55
2022/07/28 00:44:05;;;;;;;5.03;1.52;;;;;;;19.48;59.67;101260.19;4828493;29;20110;-55
2022/07/28 00:46:31;;;;;;;3.63;1.20;;;;;;;19.31;60.37;101264.88;4825504;29;20090;-55
2022/07/28 00:48:57;;;;;;;6.63;2.13;;;;;;;19.22;60.91;101261.81;4828642;29;20030;-55
2022/07/28 00:51:27;;;;;;;2.50;1.00;;;;;;;19.09;61.23;101250.50;4841640;29;20022;-55
2022/07/28 00:53:54;;;;;;;2.88;1.10;;;;;;;18.99;61.15;101253.91;4842280;29;20033;-54
2022/07/28 00:56:21;;;;;;;4.03;1.38;;;;;;;18.44;63.31;101247.44;4841674;29;20507;-56
2022/07/28 00:58:48;;;;;;;1.98;0.90;;;;;;;18.45;62.98;101257.19;4842221;29;20151;-57
2022/07/28 01:01:18;;;;;;;2.22;1.00;;;;;;;18.66;62.58;101261.03;4842244;29;20126;-55
2022/07/28 01:03:52;;;;;;;1.67;1.02;;;;;;;18.35;63.22;101261.66;4840876;29;20045;-54
2022/07/28 01:06:22;;;;;;;3.55;0.93;;;;;;;18.04;64.57;101261.13;4842480;29;20090;-55
2022/07/28 01:09:13;;;;;;;2.00;1.05;;;;;;;18.29;63.83;101257.22;4842352;29;20034;-54
2022/07/28 01:11:42;;;;;;;3.50;1.17;;;;;;;18.29;63.47;101254.50;4841594;29;20053;-57
2022/07/28 01:14:18;;;;;;;2.20;1.15;;;;;;;18.10;64.45;101265.59;4842015;29;20069;-54
2022/07/28 01:17:00;;;;;;;3.00;1.33;;;;;;;17.85;65.10;101260.56;4842647;29;20038;-57
2022/07/28 01:19:41;;;;;;;1.35;0.90;;;;;;;18.02;65.41;101251.63;4842228;29;20379;-56
2022/07/28 01:22:11;;;;;;;2.90;1.08;;;;;;;17.98;65.50;101264.81;4835970;29;20117;-58
2022/07/28 01:24:55;;;;;;;1.38;0.88;;;;;;;18.13;65.20;101267.81;4834275;29;20505;-59
2022/07/28 01:27:34;;;;;;;2.10;0.88;;;;;;;17.96;64.55;101258.03;4838859;29;20117;-57
2022/07/28 01:30:27;;;;;;;1.67;0.90;;;;;;;17.90;64.96;101254.41;4839115;29;20113;-55
2022/07/28 01:33:09;;;;;;;4.20;0.85;;;;;;;17.55;66.52;101254.56;4831582;29;20046;-51
2022/07/28 01:35:45;;;;;;;2.85;1.15;;;;;;;17.61;67.03;101261.72;4840510;29;20383;-53
2022/07/28 01:38:16;;;;;;;1.33;0.80;;;;;;;17.32;67.61;101250.03;4841666;29;20061;-53
2022/07/28 01:40:44;;;;;;;4.32;1.13;;;;;;;17.44;66.92;101245.44;4835401;29;20046;-53
2022/07/28 01:43:20;;;;;;;2.67;1.02;;;;;;;17.17;67.77;101255.16;4840405;29;20038;-52
2022/07/28 01:45:46;;;;;;;3.92;1.20;;;;;;;17.28;67.38;101252.41;4840577;29;20034;-54
2022/07/28 01:48:16;;;;;;;3.80;1.15;;;;;;;17.34;66.87;101250.63;4842331;29;20109;-54
2022/07/28 01:50:45;;;;;;;3.95;0.90;;;;;;;17.53;66.64;101245.84;4838495;29;20041;-54
2022/07/28 01:53:13;;;;;;;1.85;1.13;;;;;;;17.60;66.34;101249.22;4828489;29;20034;-54
2022/07/28 01:55:43;;;;;;;2.38;0.90;;;;;;;17.33;67.22;101254.41;4823735;29;20403;-54
2022/07/28 01:58:13;;;;;;;2.65;1.00;;;;;;;17.08;67.63;101255.53;4828169;29;20034;-54
2022/07/28 02:00:41;;;;;;;2.22;1.00;;;;;;;17.27;67.23;101252.66;4838046;29;20041;-57
2022/07/28 02:03:10;;;;;;;2.83;1.10;;;;;;;17.46;66.75;101256.81;4835606;29;20049;-57
2022/07/28 02:05:40;;;;;;;3.78;1.13;;;;;;;17.34;67.37;101254.16;4823064;29;20018;-57
2022/07/28 02:08:08;;;;;;;3.80;1.08;;;;;;;17.35;67.48;101261.22;4833358;29;20030;-57
2022/07/28 02:10:36;;;;;;;3.22;1.15;;;;;;;17.60;66.28;101266.31;4836469;29;20034;-57
2022/07/28 02:13:03;;;;;;;2.80;1.15;;;;;;;17.60;66.62;101273.59;4842211;29;20568;-57
2022/07/28 02:15:31;;;;;;;6.45;1.05;;;;;;;17.93;65.75;101259.31;4836235;29;20076;-55
2022/07/28 02:17:59;;;;;;;2.53;1.10;;;;;;;17.89;65.35;101263.59;4832001;29;20022;-56
2022/07/28 02:20:25;;;;;;;3.20;1.00;;;;;;;17.65;66.10;101260.16;4823610;29;20031;-56
2022/07/28 02:22:53;;;;;;;3.22;1.00;;;;;;;17.70;65.72;101265.66;4840017;29;20172;-56
2022/07/28 02:25:20;;;;;;;0.93;0.70;;;;;;;18.22;63.94;101251.16;4841567;29;20030;-56
2022/07/28 02:27:48;;;;;;;1.88;0.90;;;;;;;18.08;64.19;101256.88;4847814;29;20044;-56
2022/07/28 02:30:17;;;;;;;1.27;0.85;;;;;;;18.37;63.53;101254.91;4860360;29;20037;-55
2022/07/28 02:32:54;;;;;;;3.03;0.80;;;;;;;18.69;62.36;101248.88;4860441;29;20116;-56
2022/07/28 02:35:33;;;;;;;2.60;1.10;;;;;;;18.77;61.83;101253.06;4840090;23;20037;-56
2022/07/28 02:38:16;;;;;;;3.30;1.00;;;;;;;18.75;61.42;101252.50;4822010;29;20512;-56
2022/07/28 02:40:44;;;;;;;3.00;0.98;;;;;;;18.47;62.70;101241.50;4821421;29;20050;-56
2022/07/28 02:43:14;;;;;;;1.02;0.70;;;;;;;18.17;63.74;101247.28;4822757;29;20383;-56
2022/07/28 02:45:45;;;;;;;3.35;0.90;;;;;;;17.72;65.48;101252.75;4823661;29;20042;-56
2022/07/28 02:48:16;;;;;;;1.52;0.65;;;;;;;17.57;65.54;101252.44;4823464;29;20117;-56
2022/07/28 02:50:45;;;;;;;2.58;1.10;;;;;;;17.28;66.83;101265.94;4823656;29;20056;-55
2022/07/28 02:53:13;;;;;;;2.45;0.90;;;;;;;16.98;67.73;101262.59;4823332;29;20114;-55
2022/07/28 02:55:41;;;;;;;1.95;0.73;;;;;;;16.89;68.44;101251.34;4823424;29;20453;-56
2022/07/28 02:58:09;;;;;;;2.80;1.10;;;;;;;16.79;68.60;101264.63;4823399;29;20075;-55
2022/07/28 03:00:37;;;;;;;1.08;0.90;;;;;;;16.74;68.67;101257.22;4823260;29;20492;-56
2022/07/28 03:03:04;;;;;;;3.58;0.98;;;;;;;16.91;68.13;101257.31;4823038;29;20034;-55
2022/07/28 03:05:31;;;;;;;3.00;0.80;;;;;;;16.61;69.52;101265.56;4823242;29;20053;-55
2022/07/28 03:07:58;;;;;;;3.08;0.90;;;;;;;16.42;70.44;101262.13;4823396;29;20030;-55
2022/07/28 03:10:26;;;;;;;1.95;0.70;;;;;;;16.39;70.70;101261.81;4823073;29;20026;-55
2022/07/28 03:12:55;;;;;;;2.60;0.88;;;;;;;16.14;71.72;101262.00;4823310;29;20155;-55
2022/07/28 03:15:23;;;;;;;3.60;1.10;;;;;;;16.15;71.81;101271.75;4823006;29;20083;-56
2022/07/28 03:17:50;;;;;;;5.75;0.57;;;;;;;15.99;72.26;101265.97;4821328;29;20038;-55
2022/07/28 03:20:16;;;;;;;1.38;0.70;;;;;;;16.02;72.47;101265.50;4822609;29;20031;-55
2022/07/28 03:22:42;;;;;;;1.63;0.70;;;;;;;15.89;72.79;101257.63;4822698;29;20076;-55
2022/07/28 03:25:19;;;;;;;1.88;0.63;;;;;;;15.85;72.85;101261.81;4822728;29;20031;-56
2022/07/28 03:27:49;;;;;;;0.80;0.60;;;;;;;15.71;73.38;101269.31;4822990;29;20536;-56
2022/07/28 03:30:19;;;;;;;0.70;0.47;;;;;;;15.53;74.43;101269.31;4822920;29;20438;-55
2022/07/28 03:32:58;;;;;;;1.42;0.70;;;;;;;15.48;74.44;101272.69;4822720;29;20395;-55
2022/07/28 03:35:25;;;;;;;2.95;0.55;;;;;;;15.40;74.89;101269.47;4822387;29;20030;-54
2022/07/28 03:38:17;;;;;;;1.17;0.40;;;;;;;15.35;75.31;101270.16;4822690;29;20105;-55
2022/07/28 03:40:45;;;;;;;1.23;0.68;;;;;;;15.20;75.79;101272.41;4820695;29;20042;-54
2022/07/28 03:43:15;;;;;;;2.30;0.68;;;;;;;15.28;75.57;101275.66;4822548;29;20114;-54
2022/07/28 03:45:41;;;;;;;1.38;0.40;;;;;;;15.18;75.94;101275.34;4822473;29;20400;-55
2022/07/28 03:48:08;;;;;;;1.77;0.47;;;;;;;15.02;77.02;101279.47;4823694;29;20026;-55
2022/07/28 03:50:34;;;;;;;3.05;0.60;;;;;;;14.93;77.20;101278.09;4826335;29;20030;-55
2022/07/28 03:53:04;;;;;;;1.40;0.40;;;;;;;15.03;76.83;101277.59;4825899;29;20058;-55
2022/07/28 03:55:30;;;;;;;0.70;0.50;;;;;;;14.96;77.80;101279.53;4825964;29;20046;-55
2022/07/28 03:57:56;;;;;;;0.40;0.32;;;;;;;14.89;77.91;101276.94;4825861;29;20034;-55
2022/07/28 04:00:24;;;;;;;0.98;0.52;;;;;;;15.05;77.47;101279.03;4825603;29;20080;-55
2022/07/28 04:02:51;;;;;;;2.00;0.70;;;;;;;15.03;77.15;101267.63;4825692;29;20043;-55
2022/07/28 04:05:18;;;;;;;2.22;0.70;;;;;;;15.03;77.31;101278.41;4825657;29;20030;-55
2022/07/28 04:07:45;;;;;;;2.58;0.63;;;;;;;14.62;79.45;101272.84;4826160;29;20038;-54
2022/07/28 04:10:13;;;;;;;1.42;0.73;;;;;;;14.88;78.43;101282.53;4825685;29;20030;-55
2022/07/28 04:12:53;;;;;;;1.85;0.88;;;;;;;14.76;78.97;101277.88;4825565;29;20030;-55
2022/07/28 04:15:21;;;;;;;3.40;1.02;;;;;;;14.90;78.46;101283.13;4825309;29;20063;-55
2022/07/28 04:17:48;;;;;;;5.68;1.95;;;;;;;14.76;78.50;101282.44;4825504;29;20113;-55
2022/07/28 04:20:16;;;;;;;5.15;2.05;;;;;;;14.71;78.94;101288.53;4825631;29;20034;-55
2022/07/28 04:22:43;;;;;;;3.47;2.03;;;;;;;14.72;79.35;101297.44;4825463;29;20060;-54
2022/07/28 04:25:11;;;;;;;3.38;1.98;;;;;;;14.87;78.19;101286.28;4825179;29;20117;-55
2022/07/28 04:27:39;;;;;;;3.83;2.35;;;;;;;14.82;78.19;101296.88;4825486;29;20496;-55
2022/07/28 04:30:16;;;;;;;3.78;2.33;;;;;;;14.86;78.21;101290.00;4825200;29;20066;-55
2022/07/28 04:32:47;;;;;;;3.78;2.30;;;;;;;14.54;79.91;101290.09;4825437;29;20030;-55
2022/07/28 04:35:15;;;;;;;3.97;2.53;;;;;;;14.63;79.97;101294.19;4825116;29;20066;-55
2022/07/28 04:37:41;;;;;;;3.50;2.03;;;;;;;14.74;79.39;101308.78;4824999;29;20050;-55
2022/07/28 04:40:10;;;;;;;2.63;2.33;;;;;;;14.90;78.95;101316.31;4824874;29;20067;-55
2022/07/28 04:42:38;;;;;;;3.75;2.17;;;;;;;14.67;80.02;101310.72;4825068;29;20074;-55
2022/07/28 04:45:06;;;;;;;3.05;1.83;;;;;;;14.67;79.97;101316.13;4823615;29;20042;-55
2022/07/28 04:47:33;;;;;;;4.65;1.90;;;;;;;14.68;80.04;101307.81;4825164;29;20079;-55
2022/07/28 04:50:00;;;;;;;2.38;1.48;;;;;;;14.62;80.28;101318.66;4824803;29;20034;-55
2022/07/28 04:52:26;;;;;;;1.95;1.20;;;;;;;14.75;79.74;101316.66;4825374;29;20086;-55
2022/07/28 04:54:53;;;;;;;1.30;0.93;;;;;;;14.90;79.05;101310.09;4824409;29;20121;-56
2022/07/28 04:57:19;;;;;;;2.78;1.25;;;;;;;14.95;78.34;101311.06;4825113;29;20037;-56
2022/07/28 04:59:46;;;;;;;4.30;1.35;;;;;;;14.83;78.84;101312.03;4822764;29;20030;-56
2022/07/28 05:02:12;;;;;;;2.22;0.82;;;;;;;14.99;78.03;101320.38;4823827;29;20039;-55
2022/07/28 05:04:38;;;;;;;1.35;0.60;;;;;;;15.00;77.63;101318.50;4822999;29;20090;-54
2022/07/28 05:07:05;;;;;;;1.27;0.75;;;;;;;14.83;77.99;101314.72;4824794;29;20377;-55
2022/07/28 05:09:31;;;;;;;1.85;0.75;;;;;;;14.79;78.14;101308.97;4821830;29;20042;-53
2022/07/28 05:11:58;;;;;;;1.63;0.75;;;;;;;14.95;77.69;101319.16;4824387;29;20034;-55
2022/07/28 05:14:25;;;;;;;1.77;0.63;;;;;;;14.91;77.52;101317.94;4821229;29;20090;-55
2022/07/28 05:16:51;;;;;;;1.15;0.60;;;;;;;14.55;78.79;101323.25;4822144;29;20042;-54
2022/07/28 05:19:17;;;;;;;2.00;0.40;;;;;;;14.50;78.66;101324.75;4824558;29;20035;-55
2022/07/28 05:21:44;;;;;;;1.02;0.52;;;;;;;14.62;78.05;101318.66;4823868;29;20034;-55
2022/07/28 05:24:12;;;;;;;1.98;0.50;;;;;;;14.56;78.52;101319.53;4824069;29;20035;-55
2022/07/28 05:26:38;;;;;;;2.13;0.47;;;;;;;14.45;78.82;101316.47;4824553;29;20030;-55
2022/07/28 05:29:04;;;;;;;1.25;0.60;;;;;;;14.53;78.64;101321.63;4824169;29;20376;-55
2022/07/28 05:31:31;;;;;;;0.88;0.50;;;;;;;14.52;78.51;101314.59;4824574;29;20117;-55
2022/07/28 05:33:57;;;;;;;2.28;0.50;;;;;;;14.47;79.46;101319.81;4823809;29;20029;-55
2022/07/28 05:36:24;;;;;;;1.65;0.77;;;;;;;14.38;79.61;101321.09;4824071;29;20081;-55
2022/07/28 05:38:50;;;;;;;1.38;0.50;;;;;;;14.49;78.79;101317.72;4823872;29;20114;-55
2022/07/28 05:41:16;;;;;;;2.25;0.90;;;;;;;14.39;79.32;101330.81;4824231;29;20034;-55
2022/07/28 05:43:42;;;;;;;1.80;0.38;;;;;;;14.49;78.88;101333.88;4823884;29;20053;-55
2022/07/28 05:46:09;;;;;;;2.63;0.40;;;;;;;14.51;78.73;101329.09;4824185;29;20034;-55
2022/07/28 05:48:35;;;;;;;0.32;0.17;;;;;;;14.63;77.79;101333.78;4820537;29;20038;-55
2022/07/28 05:51:01;;;;;;;1.23;0.40;;;;;;;14.42;78.15;101334.94;4823684;29;20041;-54
2022/07/28 05:53:27;;;;;;;1.70;0.30;;;;;;;14.48;78.05;101334.91;4823899;29;20125;-55
2022/07/28 05:55:53;;;;;;;5.50;0.38;;;;;;;14.53;78.50;101331.56;4823617;29;20105;-55
2022/07/28 05:58:23;;;;;;;0.52;0.30;;;;;;;14.39;78.89;101330.00;4824026;29;20041;-56
2022/07/28 06:00:50;;;;;;;3.55;0.30;;;;;;;14.51;78.31;101331.78;4824899;29;20034;-55
2022/07/28 06:03:16;;;;;;;1.00;0.32;;;;;;;14.59;77.84;101327.97;4822572;29;20515;-54
2022/07/28 06:05:42;;;;;;;1.00;0.20;;;;;;;14.43;78.17;101325.81;4824052;29;20122;-55
2022/07/28 06:08:09;;;;;;;0.15;0.10;;;;;;;14.36;78.75;101333.94;4822685;29;20507;-54
2022/07/28 06:13:20;;;;;;;0.40;0.30;;;;;;;14.37;79.04;101326.69;4824023;29;20053;-55
2022/07/28 06:15:47;;;;;;;0.15;0.15;;;;;;;14.33;78.63;101317.41;4823290;29;20109;-55
2022/07/28 06:18:15;;;;;;;0.40;0.15;;;;;;;14.46;78.13;101310.03;4823563;29;20118;-54
2022/07/28 06:20:41;;;;;;;0.80;0.13;;;;;;;14.40;78.49;101316.31;4822749;29;20098;-54
2022/07/28 06:23:07;;;;;;;0.20;0.10;;;;;;;14.35;78.84;101324.22;4823407;29;20057;-55
2022/07/28 06:25:34;;;;;;;0.32;0.32;;;;;;;14.47;78.06;101325.19;4822640;29;20038;-54
2022/07/28 06:28:01;;;;;;;0.40;0.20;;;;;;;14.43;78.20;101320.41;4823836;29;20635;-54
2022/07/28 06:30:28;;;;;;;0.80;0.20;;;;;;;14.29;79.04;101325.09;4822629;29;20045;-54
2022/07/28 06:32:55;;;;;;;0.70;0.30;;;;;;;14.11;79.26;101323.16;4823169;29;20037;-55
2022/07/28 06:35:22;;;;;;;1.20;0.40;;;;;;;14.23;78.99;101325.97;4822345;29;20073;-56
2022/07/28 06:37:50;;;;;;;2.05;0.40;;;;;;;14.43;78.40;101317.72;4823403;29;20480;-55
2022/07/28 06:40:18;;;;;;;1.45;0.30;;;;;;;14.38;78.31;101318.41;4822590;29;20038;-54
2022/07/28 06:42:45;;;;;;;0.65;0.20;;;;;;;14.26;78.83;101328.22;4823245;29;20400;-55
2022/07/28 06:45:12;;;;;;;2.10;0.32;;;;;;;14.23;79.30;101315.22;4822174;29;20527;-55
2022/07/28 06:47:39;;;;;;;0.77;0.20;;;;;;;14.30;78.89;101315.16;4823400;29;20407;-54
2022/07/28 06:50:06;;;;;;;0.70;0.20;;;;;;;14.37;77.75;101311.34;4822335;29;20415;-55
2022/07/28 06:52:33;;;;;;;0.20;0.10;;;;;;;14.36;78.23;101315.09;4823418;29;20475;-54
2022/07/28 06:55:00;;;;;;;0.25;0.20;;;;;;;14.29;78.60;101310.81;4820749;29;20094;-55
2022/07/28 06:57:28;;;;;;;0.20;0.10;;;;;;;14.31;78.71;101306.84;4818626;29;20027;-54
2022/07/28 06:59:54;;;;;;;0.20;0.20;;;;;;;14.45;78.01;101305.72;4814525;29;20211;-55
2022/07/28 07:02:20;;;;;;;0.65;0.60;;;;;;;14.48;78.26;101313.38;4820588;29;20022;-55
2022/07/28 07:04:47;;;;;;;1.83;0.30;;;;;;;14.43;78.51;101309.66;4820644;29;20057;-54
2022/07/28 07:07:13;;;;;;;0.50;0.30;;;;;;;14.48;78.62;101302.59;4822581;29;20030;-54
2022/07/28 07:09:39;;;;;;;0.75;0.30;;;;;;;14.53;78.28;101305.44;4822869;29;20045;-54
2022/07/28 07:12:05;;;;;;;1.75;0.20;;;;;;;14.55;77.88;101307.94;4822929;29;20034;-54
2022/07/28 07:14:32;;;;;;;0.38;0.20;;;;;;;14.64;77.50;101300.38;4822699;29;20031;-55
2022/07/28 07:16:58;;;;;;;0.17;0.10;;;;;;;14.55;77.31;101299.88;4822898;29;20050;-55
2022/07/28 07:19:24;;;;;;;0.30;0.20;;;;;;;14.51;77.60;101298.66;4821798;29;20034;-55
2022/07/28 07:21:50;;;;;;;0.50;0.20;;;;;;;14.50;77.36;101295.13;4822792;29;20038;-55
2022/07/28 07:24:17;;;;;;;0.80;0.25;;;;;;;14.18;78.93;101299.69;4825596;29;20070;-53
2022/07/28 07:26:43;;;;;;;0.20;0.20;;;;;;;14.28;78.43;101299.22;4826330;29;20514;-55
2022/07/28 07:29:10;;;;;;;0.40;0.15;;;;;;;14.38;78.39;101299.56;4826553;29;20712;-55
2022/07/28 07:31:38;;;;;;;4.03;0.43;;;;;;;14.49;77.77;101298.03;4826382;29;20026;-54
2022/07/28 07:34:05;;;;;;;0.98;0.20;;;;;;;14.22;78.87;101286.66;4826514;29;20476;-54
2022/07/28 07:36:31;;;;;;;1.38;0.30;;;;;;;14.35;78.28;101289.22;4826517;29;20058;-54
2022/07/28 07:38:58;;;;;;;0.35;0.28;;;;;;;14.47;77.76;101287.47;4826281;29;20113;-54
2022/07/28 07:41:24;;;;;;;0.60;0.30;;;;;;;14.31;78.37;101285.31;4826525;29;20023;-54
2022/07/28 07:43:50;;;;;;;0.57;0.32;;;;;;;14.30;78.36;101280.16;4825810;29;20043;-55
2022/07/28 07:46:17;;;;;;;0.93;0.50;;;;;;;14.02;79.00;101283.25;4826235;29;20031;-55
2022/07/28 07:48:43;;;;;;;0.57;0.35;;;;;;;14.08;79.24;101291.28;4826168;29;20048;-55
2022/07/28 07:51:10;;;;;;;1.33;0.30;;;;;;;14.09;78.99;101276.78;4826019;29;20506;-55
2022/07/28 07:53:36;;;;;;;0.52;0.20;;;;;;;13.99;79.10;101285.34;4825692;29;20136;-55
2022/07/28 07:56:02;;;;;;;0.63;0.20;;;;;;;14.04;79.59;101286.56;4825955;29;20054;-55
2022/07/28 07:58:29;;;;;;;0.28;0.20;;;;;;;14.07;79.50;101281.56;4826126;29;20105;-54
2022/07/28 08:00:55;;;;;;;0.70;0.30;;;;;;;13.94;79.56;101273.59;4825899;29;20026;-54
2022/07/28 08:03:21;;;;;;;0.43;0.20;;;;;;;14.05;79.51;101270.19;4825482;29;20113;-54
2022/07/28 08:05:48;;;;;;;0.20;0.20;;;;;;;14.13;79.26;101274.47;4825693;29;20034;-54
2022/07/28 08:08:15;;;;;;;1.15;0.30;;;;;;;14.03;79.55;101274.97;4825550;29;20022;-55
2022/07/28 08:10:41;;;;;;;0.93;0.15;;;;;;;14.11;79.50;101273.88;4825677;29;20110;-54
2022/07/28 08:13:08;;;;;;;3.25;0.55;;;;;;;14.03;79.89;101283.03;4813660;29;20046;-55
2022/07/28 08:15:35;;;;;;;0.40;0.20;;;;;;;14.15;79.60;101275.06;4824783;29;20046;-54
2022/07/28 08:18:02;;;;;;;0.30;0.20;;;;;;;14.26;79.31;101285.13;4837682;24;20054;-55
2022/07/28 08:20:28;;;;;;;0.63;0.20;;;;;;;14.30;78.79;101283.66;4844071;29;20026;-54
2022/07/28 08:22:56;;;;;;;0.50;0.25;;;;;;;14.35;78.45;101270.38;4843491;29;20041;-55
2022/07/28 08:25:23;;;;;;;1.52;0.20;;;;;;;14.33;78.33;101272.47;4843692;29;20132;-53
2022/07/28 08:27:50;;;;;;;0.00;0.00;;;;;;;14.30;78.04;101256.75;4843761;29;20030;-54
2022/07/28 08:30:20;;;;;;;1.05;0.55;;;;;;;14.38;78.00;101256.47;4843661;29;20029;-54
2022/07/28 08:32:46;;;;;;;0.85;0.43;;;;;;;14.33;78.50;101255.50;4843691;29;20063;-54
2022/07/28 08:35:13;;;;;;;0.30;0.10;;;;;;;14.41;77.93;101260.56;4832236;29;20034;-54
2022/07/28 08:37:40;;;;;;;0.40;0.20;;;;;;;14.27;78.26;101262.56;4824503;29;20073;-54
2022/07/28 08:40:13;;;;;;;0.47;0.20;;;;;;;14.47;77.49;101265.94;4825132;29;20034;-55
2022/07/28 08:43:06;;;;;;;0.45;0.10;;;;;;;14.26;78.57;101268.97;4824220;29;20038;-54
2022/07/28 08:45:33;;;;;;;0.13;0.13;;;;;;;14.33;78.30;101267.09;4824916;29;20046;-54
2022/07/28 08:48:00;;;;;;;0.52;0.10;;;;;;;14.39;77.92;101263.50;4823678;29;20083;-55
2022/07/28 08:50:28;;;;;;;1.10;0.20;;;;;;;14.27;78.40;101265.28;4824930;29;20106;-54
2022/07/28 08:52:57;;;;;;;1.25;0.20;;;;;;;14.24;78.55;101276.47;4823832;29;20387;-54
2022/07/28 08:55:25;;;;;;;0.65;0.10;;;;;;;14.36;78.08;101272.00;4825077;29;20034;-54
2022/07/28 08:57:56;;;;;;;0.25;0.20;;;;;;;14.28;78.30;101272.28;4824225;29;20039;-54
2022/07/28 09:00:23;;;;;;;0.60;0.20;;;;;;;14.30;78.41;101266.69;4808693;29;20041;-53
2022/07/28 09:02:50;;;;;;;0.70;0.20;;;;;;;14.25;78.53;101268.16;4822982;29;20563;-53
2022/07/28 09:05:20;;;;;;;0.28;0.15;;;;;;;14.18;79.31;101263.88;4824734;29;20503;-54
2022/07/28 09:07:51;;;;;;;2.05;0.22;;;;;;;14.23;78.69;101255.97;4823658;29;20042;-55
2022/07/28 09:10:18;;;;;;;0.30;0.20;;;;;;;14.04;79.39;101267.72;4824921;29;20451;-54
2022/07/28 09:12:44;;;;;;;0.20;0.20;;;;;;;14.09;79.71;101263.31;4812866;29;20392;-54
2022/07/28 09:15:14;;;;;;;0.20;0.20;;;;;;;14.22;78.76;101265.94;4806484;29;20057;-54
2022/07/28 09:17:42;;;;;;;0.80;0.13;;;;;;;14.25;78.42;101267.34;4816037;29;20137;-56
2022/07/28 09:20:12;;;;;;;0.40;0.20;;;;;;;14.22;78.29;101265.09;4824583;29;20426;-55
2022/07/28 09:23:00;;;;;;;0.43;0.20;;;;;;;14.39;77.76;101260.81;4823137;29;20031;-54
2022/07/28 09:25:27;;;;;;;0.38;0.20;;;;;;;14.43;77.65;101263.88;4824652;29;20078;-55
2022/07/28 09:27:54;;;;;;;0.55;0.10;;;;;;;14.46;77.77;101266.13;4824899;29;20087;-55
2022/07/28 09:30:31;;;;;;;0.10;0.10;;;;;;;14.51;77.39;101260.94;4823365;29;20384;-54
2022/07/28 09:33:17;;;;;;;1.48;0.10;;;;;;;14.56;76.90;101265.66;4806064;29;20635;-54
2022/07/28 09:35:53;;;;;;;0.68;0.20;;;;;;;14.48;76.84;101264.88;4809651;29;20508;-55
2022/07/28 09:38:21;;;;;;;0.00;0.00;;;;;;;14.54;76.50;101268.56;4832445;23;20484;-54
2022/07/28 09:40:58;;;;;;;1.73;0.28;;;;;;;14.63;76.27;101267.25;4838277;29;20042;-54
2022/07/28 09:43:36;;;;;;;0.55;0.20;;;;;;;14.60;76.65;101272.22;4832463;29;20483;-55
2022/07/28 09:46:13;;;;;;;1.27;0.10;;;;;;;14.62;76.40;101281.75;4823381;29;20140;-55
2022/07/28 09:48:47;;;;;;;0.10;0.10;;;;;;;14.74;75.86;101273.75;4824133;29;20071;-54
2022/07/28 09:51:20;;;;;;;0.17;0.17;;;;;;;14.85;75.39;101270.34;4829520;29;20034;-55
2022/07/28 09:53:47;;;;;;;0.20;0.10;;;;;;;14.76;75.74;101267.09;4841845;29;20030;-54
2022/07/28 09:56:13;;;;;;;0.98;0.10;;;;;;;14.73;75.64;101264.84;4835351;29;20026;-55
2022/07/28 09:58:40;;;;;;;0.20;0.13;;;;;;;14.68;75.77;101262.00;4842282;29;20030;-55
2022/07/28 10:01:19;;;;;;;0.20;0.20;;;;;;;14.94;75.14;101260.91;4837333;29;20034;-53
2022/07/28 10:03:53;;;;;;;0.65;0.10;;;;;;;14.83;75.54;101260.84;4823354;29;20049;-55
2022/07/28 10:06:28;;;;;;;0.65;0.20;;;;;;;14.69;75.73;101258.25;4823302;29;20514;-54
2022/07/28 10:08:57;;;;;;;0.40;0.17;;;;;;;14.78;75.30;101262.31;4824135;29;20084;-55
2022/07/28 10:11:27;;;;;;;0.17;0.10;;;;;;;14.76;75.54;101258.19;4828404;29;20055;-55
2022/07/28 10:14:12;;;;;;;0.30;0.10;;;;;;;14.95;75.07;101248.25;4841821;29;20097;-55
2022/07/28 10:16:45;;;;;;;0.20;0.17;;;;;;;14.80;75.74;101256.69;4840138;29;20551;-54
2022/07/28 10:19:11;;;;;;;0.57;0.10;;;;;;;14.80;75.34;101256.69;4842032;29;20095;-55
2022/07/28 10:21:45;;;;;;;1.65;0.30;;;;;;;14.90;74.87;101248.94;4840254;29;20561;-55
2022/07/28 10:24:21;;;;;;;0.20;0.10;;;;;;;14.77;75.19;101247.22;4842103;29;20098;-55
2022/07/28 10:26:48;;;;;;;0.40;0.20;;;;;;;14.91;75.07;101255.13;4832851;29;20168;-55
2022/07/28 10:29:20;;;;;;;0.30;0.10;;;;;;;14.88;74.67;101253.72;4823941;29;20038;-54
2022/07/28 10:31:57;;;;;;;0.25;0.10;;;;;;;14.82;74.60;101251.06;4829253;29;20163;-55
2022/07/28 10:34:33;;;;;;;0.20;0.20;;;;;;;14.82;75.03;101256.47;4841295;29;20030;-55
2022/07/28 10:37:02;;;;;;;0.20;0.17;;;;;;;14.92;74.63;101246.81;4831474;29;20027;-54
2022/07/28 10:39:38;;;;;;;0.65;0.10;;;;;;;14.70;75.10;101243.72;4823474;29;20046;-54
2022/07/28 10:42:10;;;;;;;3.53;0.10;;;;;;;14.64;75.31;101239.25;4823442;29;20061;-55
2022/07/28 10:44:38;;;;;;;0.60;0.17;;;;;;;14.54;76.01;101230.84;4840312;29;20042;-53
2022/07/28 10:47:11;;;;;;;0.93;0.10;;;;;;;14.57;75.62;101224.22;4839646;29;20109;-53
2022/07/28 10:49:38;;;;;;;0.10;0.10;;;;;;;14.43;75.89;101218.06;4824879;29;20064;-55
2022/07/28 10:52:06;;;;;;;0.60;0.10;;;;;;;14.52;76.10;101214.09;4835333;29;20121;-54
2022/07/28 10:54:48;;;;;;;0.32;0.10;;;;;;;14.43;75.80;101215.38;4841003;29;20128;-54
2022/07/28 10:57:16;;;;;;;0.25;0.20;;;;;;;14.41;76.21;101212.09;4825438;29;20041;-54
2022/07/28 11:00:02;;;;;;;0.55;0.13;;;;;;;14.34;76.43;101203.28;4823588;29;20091;-53
2022/07/28 11:02:49;;;;;;;0.10;0.10;;;;;;;14.31;77.11;101198.31;4838456;29;20475;-53
2022/07/28 11:05:42;;;;;;;0.32;0.10;;;;;;;14.41;76.69;101202.16;4823214;29;20042;-54
2022/07/28 11:08:27;;;;;;;0.10;0.10;;;;;;;14.17;77.52;101189.56;4819618;29;20050;-54
2022/07/28 11:10:54;;;;;;;0.25;0.10;;;;;;;14.13;77.69;101202.63;4823296;29;20026;-54
2022/07/28 11:13:29;;;;;;;0.68;0.10;;;;;;;14.10;77.66;101195.00;4823105;29;20078;-55
2022/07/28 11:16:16;;;;;;;0.17;0.10;;;;;;;14.03;78.19;101199.59;4822661;29;20061;-54
2022/07/28 11:19:06;;;;;;;0.45;0.13;;;;;;;14.11;77.85;101193.94;4822370;29;20455;-55
2022/07/28 11:21:33;;;;;;;0.82;0.22;;;;;;;14.04;78.07;101198.56;4822835;29;20376;-54
2022/07/28 11:23:59;;;;;;;1.15;0.20;;;;;;;13.93;78.39;101192.00;4822650;29;20107;-55
2022/07/28 11:26:33;;;;;;;0.17;0.10;;;;;;;13.92;78.59;101193.06;4822733;29;20078;-55
2022/07/28 11:28:59;;;;;;;0.30;0.10;;;;;;;14.00;78.39;101191.97;4820405;29;20103;-53
2022/07/28 11:31:44;;;;;;;0.43;0.30;;;;;;;13.95;79.08;101189.13;4820425;29;20058;-54
2022/07/28 11:34:11;;;;;;;0.47;0.20;;;;;;;13.95;79.29;101195.31;4825998;29;20085;-54
2022/07/28 11:37:02;;;;;;;0.65;0.47;;;;;;;14.02;78.81;101197.13;4824990;29;20065;-54